sensor_id;sensor_type;location;lat;lon;timestamp;pressure;altitude;pressure_sealevel;temperature;humidity
2549;BME280;1284;53.520;10.248;2023-11-19T00:01:42;100198.06;;;8.31;99.40
2549;BME280;1284;53.520;10.248;2023-11-19T00:04:08;100204.34;;;8.39;99.83
2549;BME280;1284;53.520;10.248;2023-11-19T00:06:33;100189.91;;;8.43;99.21
2549;BME280;1284;53.520;10.248;2023-11-19T00:08:59;100185.88;;;8.34;99.30
2549;BME280;1284;53.520;10.248;2023-11-19T00:11:25;100184.72;;;8.35;100.00
2549;BME280;1284;53.520;10.248;2023-11-19T00:13:50;100193.75;;;8.11;100.00
2549;BME280;1284;53.520;10.248;2023-11-19T00:16:16;100184.66;;;8.15;100.00
2549;BME280;1284;53.520;10.248;2023-11-19T00:18:44;100162.84;;;8.17;100.00
2549;BME280;1284;53.520;10.248;2023-11-19T00:21:10;100153.94;;;8.29;100.00
2549;BME280;1284;53.520;10.248;2023-11-19T00:23:36;100158.31;;;8.37;100.00
2549;BME280;1284;53.520;10.248;2023-11-19T00:26:01;100141.06;;;8.34;100.00
2549;BME280;1284;53.520;10.248;2023-11-19T00:28:27;100129.03;;;8.28;100.00
2549;BME280;1284;53.520;10.248;2023-11-19T00:30:54;100124.78;;;8.27;100.00
2549;BME280;1284;53.520;10.248;2023-11-19T00:33:20;100120.84;;;8.40;100.00
2549;BME280;1284;53.520;10.248;2023-11-19T00:35:46;100121.97;;;8.39;99.66
2549;BME280;1284;53.520;10.248;2023-11-19T00:38:13;100112.09;;;8.43;100.00
2549;BME280;1284;53.520;10.248;2023-11-19T00:40:39;100100.81;;;8.34;100.00
2549;BME280;1284;53.520;10.248;2023-11-19T00:43:06;100092.34;;;8.32;100.00
2549;BME280;1284;53.520;10.248;2023-11-19T00:45:32;100084.81;;;8.22;100.00
2549;BME280;1284;53.520;10.248;2023-11-19T00:47:58;100081.94;;;8.31;100.00
2549;BME280;1284;53.520;10.248;2023-11-19T00:50:26;100073.81;;;8.46;100.00
2549;BME280;1284;53.520;10.248;2023-11-19T00:52:51;100070.03;;;8.47;100.00
2549;BME280;1284;53.520;10.248;2023-11-19T00:55:17;100074.25;;;8.48;100.00
2549;BME280;1284;53.520;10.248;2023-11-19T00:57:43;100076.78;;;8.41;100.00
2549;BME280;1284;53.520;10.248;2023-11-19T01:00:09;100076.66;;;8.53;100.00
2549;BME280;1284;53.520;10.248;2023-11-19T01:02:43;100075.44;;;8.51;100.00
2549;BME280;1284;53.520;10.248;2023-11-19T01:05:09;100063.50;;;8.48;100.00
2549;BME280;1284;53.520;10.248;2023-11-19T01:07:35;100063.09;;;8.46;99.90
2549;BME280;1284;53.520;10.248;2023-11-19T01:10:00;100048.19;;;8.49;100.00
2549;BME280;1284;53.520;10.248;2023-11-19T01:12:26;100040.63;;;8.54;100.00
2549;BME280;1284;53.520;10.248;2023-11-19T01:14:51;100019.03;;;8.47;100.00
2549;BME280;1284;53.520;10.248;2023-11-19T01:17:16;100011.34;;;8.46;100.00
2549;BME280;1284;53.520;10.248;2023-11-19T01:19:43;99995.31;;;8.49;100.00
2549;BME280;1284;53.520;10.248;2023-11-19T01:22:12;99992.91;;;8.44;100.00
2549;BME280;1284;53.520;10.248;2023-11-19T01:24:37;99984.16;;;8.47;100.00
2549;BME280;1284;53.520;10.248;2023-11-19T01:27:03;99974.69;;;8.53;100.00
2549;BME280;1284;53.520;10.248;2023-11-19T01:29:28;99970.75;;;8.47;100.00
2549;BME280;1284;53.520;10.248;2023-11-19T01:31:54;99958.34;;;8.39;100.00
2549;BME280;1284;53.520;10.248;2023-11-19T01:34:19;99950.59;;;8.34;100.00
2549;BME280;1284;53.520;10.248;2023-11-19T01:36:46;99947.50;;;8.32;100.00
2549;BME280;1284;53.520;10.248;2023-11-19T01:39:12;99937.09;;;8.31;100.00
2549;BME280;1284;53.520;10.248;2023-11-19T01:41:37;99939.34;;;8.48;100.00
2549;BME280;1284;53.520;10.248;2023-11-19T01:44:05;99934.25;;;8.43;100.00
2549;BME280;1284;53.520;10.248;2023-11-19T01:46:31;99933.50;;;8.23;100.00
2549;BME280;1284;53.520;10.248;2023-11-19T01:48:58;99918.00;;;8.32;100.00
2549;BME280;1284;53.520;10.248;2023-11-19T01:51:24;99911.25;;;8.42;100.00
2549;BME280;1284;53.520;10.248;2023-11-19T01:53:50;99924.13;;;8.55;100.00
2549;BME280;1284;53.520;10.248;2023-11-19T01:56:16;99921.78;;;8.54;100.00
2549;BME280;1284;53.520;10.248;2023-11-19T01:58:43;99911.72;;;8.47;100.00
2549;BME280;1284;53.520;10.248;2023-11-19T02:01:10;99898.25;;;8.44;100.00
2549;BME280;1284;53.520;10.248;2023-11-19T02:03:36;99900.84;;;8.40;100.00
2549;BME280;1284;53.520;10.248;2023-11-19T02:06:02;99912.50;;;8.48;100.00
2549;BME280;1284;53.520;10.248;2023-11-19T02:08:29;99886.91;;;8.54;100.00
2549;BME280;1284;53.520;10.248;2023-11-19T02:10:57;99887.63;;;8.51;100.00
2549;BME280;1284;53.520;10.248;2023-11-19T02:13:24;99894.91;;;8.50;100.00
2549;BME280;1284;53.520;10.248;2023-11-19T02:15:50;99872.88;;;8.38;100.00
2549;BME280;1284;53.520;10.248;2023-11-19T02:18:29;99872.16;;;8.21;100.00
2549;BME280;1284;53.520;10.248;2023-11-19T02:20:56;99863.63;;;8.35;100.00
2549;BME280;1284;53.520;10.248;2023-11-19T02:23:22;99858.06;;;8.47;100.00
2549;BME280;1284;53.520;10.248;2023-11-19T02:26:24;99852.34;;;8.49;100.00
2549;BME280;1284;53.520;10.248;2023-11-19T02:28:53;99854.66;;;8.50;100.00
2549;BME280;1284;53.520;10.248;2023-11-19T02:31:18;99842.19;;;8.61;100.00
2549;BME280;1284;53.520;10.248;2023-11-19T02:33:44;99835.22;;;8.57;100.00
2549;BME280;1284;53.520;10.248;2023-11-19T02:36:10;99832.22;;;8.62;100.00
2549;BME280;1284;53.520;10.248;2023-11-19T02:38:39;99842.66;;;8.67;100.00
2549;BME280;1284;53.520;10.248;2023-11-19T02:41:05;99825.78;;;8.66;100.00
2549;BME280;1284;53.520;10.248;2023-11-19T02:43:32;99824.56;;;8.64;100.00
2549;BME280;1284;53.520;10.248;2023-11-19T02:46:03;99814.38;;;8.73;100.00
2549;BME280;1284;53.520;10.248;2023-11-19T02:48:36;99793.97;;;8.68;100.00
2549;BME280;1284;53.520;10.248;2023-11-19T02:51:02;99803.16;;;8.67;100.00
2549;BME280;1284;53.520;10.248;2023-11-19T02:53:32;99785.84;;;8.61;100.00
2549;BME280;1284;53.520;10.248;2023-11-19T02:55:57;99766.31;;;8.64;100.00
2549;BME280;1284;53.520;10.248;2023-11-19T02:58:31;99778.81;;;8.53;100.00
2549;BME280;1284;53.520;10.248;2023-11-19T03:00:57;99762.44;;;8.62;100.00
2549;BME280;1284;53.520;10.248;2023-11-19T03:03:26;99767.75;;;8.58;100.00
2549;BME280;1284;53.520;10.248;2023-11-19T03:06:07;99756.41;;;8.42;100.00
2549;BME280;1284;53.520;10.248;2023-11-19T03:08:35;99751.56;;;8.51;100.00
2549;BME280;1284;53.520;10.248;2023-11-19T03:11:01;99756.78;;;8.67;100.00
2549;BME280;1284;53.520;10.248;2023-11-19T03:13:30;99741.00;;;8.65;100.00
2549;BME280;1284;53.520;10.248;2023-11-19T03:15:56;99732.97;;;8.65;100.00
2549;BME280;1284;53.520;10.248;2023-11-19T03:18:21;99750.00;;;8.76;100.00
2549;BME280;1284;53.520;10.248;2023-11-19T03:20:47;99748.19;;;8.87;100.00
2549;BME280;1284;53.520;10.248;2023-11-19T03:23:13;99740.97;;;8.91;100.00
2549;BME280;1284;53.520;10.248;2023-11-19T03:25:41;99732.31;;;8.75;100.00
2549;BME280;1284;53.520;10.248;2023-11-19T03:28:06;99723.13;;;8.73;100.00
2549;BME280;1284;53.520;10.248;2023-11-19T03:30:35;99715.84;;;8.77;100.00
2549;BME280;1284;53.520;10.248;2023-11-19T03:33:04;99709.09;;;8.86;100.00
2549;BME280;1284;53.520;10.248;2023-11-19T03:35:29;99702.13;;;8.82;100.00
2549;BME280;1284;53.520;10.248;2023-11-19T03:37:58;99687.63;;;8.86;100.00
2549;BME280;1284;53.520;10.248;2023-11-19T03:40:24;99676.88;;;8.86;100.00
2549;BME280;1284;53.520;10.248;2023-11-19T03:42:50;99673.84;;;8.91;100.00
2549;BME280;1284;53.520;10.248;2023-11-19T03:45:15;99659.28;;;8.92;100.00
2549;BME280;1284;53.520;10.248;2023-11-19T03:47:41;99661.72;;;9.04;100.00
2549;BME280;1284;53.520;10.248;2023-11-19T03:50:07;99678.19;;;9.03;100.00
2549;BME280;1284;53.520;10.248;2023-11-19T03:52:36;99680.50;;;9.04;100.00
2549;BME280;1284;53.520;10.248;2023-11-19T03:55:01;99681.34;;;9.12;100.00
2549;BME280;1284;53.520;10.248;2023-11-19T03:57:28;99675.31;;;9.22;100.00
2549;BME280;1284;53.520;10.248;2023-11-19T03:59:54;99674.88;;;9.17;100.00
2549;BME280;1284;53.520;10.248;2023-11-19T04:02:20;99673.38;;;9.19;100.00
2549;BME280;1284;53.520;10.248;2023-11-19T04:04:46;99657.66;;;9.21;100.00
2549;BME280;1284;53.520;10.248;2023-11-19T04:07:11;99657.19;;;9.12;100.00
2549;BME280;1284;53.520;10.248;2023-11-19T04:09:37;99658.78;;;9.20;100.00
2549;BME280;1284;53.520;10.248;2023-11-19T04:12:05;99644.91;;;9.11;100.00
2549;BME280;1284;53.520;10.248;2023-11-19T04:14:31;99647.25;;;9.20;100.00
2549;BME280;1284;53.520;10.248;2023-11-19T04:16:57;99651.09;;;9.15;100.00
2549;BME280;1284;53.520;10.248;2023-11-19T04:19:22;99648.06;;;9.24;100.00
2549;BME280;1284;53.520;10.248;2023-11-19T04:21:48;99643.13;;;9.29;100.00
2549;BME280;1284;53.520;10.248;2023-11-19T04:24:14;99631.97;;;9.24;100.00
2549;BME280;1284;53.520;10.248;2023-11-19T04:26:41;99631.16;;;9.20;100.00
2549;BME280;1284;53.520;10.248;2023-11-19T04:29:11;99633.13;;;9.26;100.00
2549;BME280;1284;53.520;10.248;2023-11-19T04:31:37;99618.19;;;9.25;100.00
2549;BME280;1284;53.520;10.248;2023-11-19T04:34:03;99609.75;;;9.27;100.00
2549;BME280;1284;53.520;10.248;2023-11-19T04:36:33;99616.31;;;9.33;100.00
2549;BME280;1284;53.520;10.248;2023-11-19T04:38:59;99614.44;;;9.37;100.00
2549;BME280;1284;53.520;10.248;2023-11-19T04:41:26;99608.31;;;9.40;100.00
2549;BME280;1284;53.520;10.248;2023-11-19T04:43:53;99604.13;;;9.42;100.00
2549;BME280;1284;53.520;10.248;2023-11-19T04:46:19;99604.44;;;9.37;100.00
2549;BME280;1284;53.520;10.248;2023-11-19T04:48:44;99604.41;;;9.30;100.00
2549;BME280;1284;53.520;10.248;2023-11-19T04:51:10;99605.91;;;9.28;100.00
2549;BME280;1284;53.520;10.248;2023-11-19T04:53:35;99590.88;;;9.20;100.00
2549;BME280;1284;53.520;10.248;2023-11-19T04:56:07;99606.66;;;9.25;100.00
2549;BME280;1284;53.520;10.248;2023-11-19T04:58:33;99592.53;;;9.35;100.00
2549;BME280;1284;53.520;10.248;2023-11-19T05:00:59;99591.75;;;9.31;100.00
2549;BME280;1284;53.520;10.248;2023-11-19T05:03:24;99587.63;;;9.47;100.00
2549;BME280;1284;53.520;10.248;2023-11-19T05:05:50;99593.81;;;9.51;100.00
2549;BME280;1284;53.520;10.248;2023-11-19T05:08:15;99596.13;;;9.56;100.00
2549;BME280;1284;53.520;10.248;2023-11-19T05:10:41;99582.28;;;9.54;100.00
2549;BME280;1284;53.520;10.248;2023-11-19T05:13:09;99586.56;;;9.59;100.00
2549;BME280;1284;53.520;10.248;2023-11-19T05:15:35;99573.56;;;9.68;100.00
2549;BME280;1284;53.520;10.248;2023-11-19T05:18:00;99571.66;;;9.68;100.00
2549;BME280;1284;53.520;10.248;2023-11-19T05:20:26;99573.22;;;9.76;100.00
2549;BME280;1284;53.520;10.248;2023-11-19T05:22:51;99570.94;;;9.78;100.00
2549;BME280;1284;53.520;10.248;2023-11-19T05:25:18;99572.06;;;9.74;100.00
2549;BME280;1284;53.520;10.248;2023-11-19T05:27:45;99567.16;;;9.86;100.00
2549;BME280;1284;53.520;10.248;2023-11-19T05:30:11;99569.44;;;9.81;100.00
2549;BME280;1284;53.520;10.248;2023-11-19T05:32:36;99560.97;;;9.79;100.00
2549;BME280;1284;53.520;10.248;2023-11-19T05:35:02;99550.63;;;9.84;100.00
2549;BME280;1284;53.520;10.248;2023-11-19T05:37:28;99556.47;;;10.00;100.00
2549;BME280;1284;53.520;10.248;2023-11-19T05:39:53;99555.69;;;10.03;100.00
2549;BME280;1284;53.520;10.248;2023-11-19T05:42:19;99553.03;;;10.07;100.00
2549;BME280;1284;53.520;10.248;2023-11-19T05:44:44;99548.78;;;10.02;100.00
2549;BME280;1284;53.520;10.248;2023-11-19T05:47:09;99553.41;;;10.09;100.00
2549;BME280;1284;53.520;10.248;2023-11-19T05:49:35;99550.75;;;10.13;100.00
2549;BME280;1284;53.520;10.248;2023-11-19T05:52:00;99554.31;;;10.34;100.00
2549;BME280;1284;53.520;10.248;2023-11-19T05:54:28;99552.41;;;10.38;100.00
2549;BME280;1284;53.520;10.248;2023-11-19T05:56:53;99538.19;;;10.45;100.00
2549;BME280;1284;53.520;10.248;2023-11-19T05:59:20;99540.50;;;10.46;100.00
2549;BME280;1284;53.520;10.248;2023-11-19T06:01:46;99542.47;;;10.53;100.00
2549;BME280;1284;53.520;10.248;2023-11-19T06:04:12;99542.84;;;10.55;100.00
2549;BME280;1284;53.520;10.248;2023-11-19T06:06:38;99541.28;;;10.61;100.00
2549;BME280;1284;53.520;10.248;2023-11-19T06:09:04;99552.09;;;10.64;100.00
2549;BME280;1284;53.520;10.248;2023-11-19T06:11:30;99552.09;;;10.71;100.00
2549;BME280;1284;53.520;10.248;2023-11-19T06:13:56;99542.88;;;10.83;100.00
2549;BME280;1284;53.520;10.248;2023-11-19T06:16:22;99545.19;;;10.88;100.00
2549;BME280;1284;53.520;10.248;2023-11-19T06:18:48;99544.03;;;10.96;100.00
2549;BME280;1284;53.520;10.248;2023-11-19T06:21:13;99539.81;;;10.99;100.00
2549;BME280;1284;53.520;10.248;2023-11-19T06:23:39;99542.88;;;11.08;100.00
2549;BME280;1284;53.520;10.248;2023-11-19T06:26:04;99542.09;;;11.04;100.00
2549;BME280;1284;53.520;10.248;2023-11-19T06:28:31;99553.28;;;11.06;100.00
2549;BME280;1284;53.520;10.248;2023-11-19T06:30:57;99548.28;;;11.08;100.00
2549;BME280;1284;53.520;10.248;2023-11-19T06:33:24;99549.03;;;11.12;100.00
2549;BME280;1284;53.520;10.248;2023-11-19T06:35:49;99559.44;;;11.20;100.00
2549;BME280;1284;53.520;10.248;2023-11-19T06:38:15;99555.22;;;11.26;100.00
2549;BME280;1284;53.520;10.248;2023-11-19T06:40:40;99559.81;;;11.33;100.00
2549;BME280;1284;53.520;10.248;2023-11-19T06:43:06;99552.91;;;11.32;100.00
2549;BME280;1284;53.520;10.248;2023-11-19T06:45:34;99559.81;;;11.40;100.00
2549;BME280;1284;53.520;10.248;2023-11-19T06:48:05;99559.41;;;11.45;100.00
2549;BME280;1284;53.520;10.248;2023-11-19T06:50:31;99549.00;;;11.54;100.00
2549;BME280;1284;53.520;10.248;2023-11-19T06:52:57;99555.56;;;11.56;100.00
2549;BME280;1284;53.520;10.248;2023-11-19T06:55:23;99554.41;;;11.61;100.00
2549;BME280;1284;53.520;10.248;2023-11-19T06:57:48;99540.53;;;11.62;100.00
2549;BME280;1284;53.520;10.248;2023-11-19T07:00:14;99547.84;;;11.65;100.00
2549;BME280;1284;53.520;10.248;2023-11-19T07:02:39;99538.59;;;11.70;100.00
2549;BME280;1284;53.520;10.248;2023-11-19T07:05:05;99552.84;;;11.77;100.00
2549;BME280;1284;53.520;10.248;2023-11-19T07:07:31;99546.25;;;11.89;100.00
2549;BME280;1284;53.520;10.248;2023-11-19T07:09:58;99553.97;;;11.94;100.00
2549;BME280;1284;53.520;10.248;2023-11-19T07:12:23;99557.03;;;11.96;100.00
2549;BME280;1284;53.520;10.248;2023-11-19T07:14:52;99555.06;;;12.07;100.00
2549;BME280;1284;53.520;10.248;2023-11-19T07:17:18;99561.25;;;11.97;100.00
2549;BME280;1284;53.520;10.248;2023-11-19T07:19:46;99551.97;;;12.09;100.00
2549;BME280;1284;53.520;10.248;2023-11-19T07:22:11;99553.41;;;12.27;100.00
2549;BME280;1284;53.520;10.248;2023-11-19T07:24:39;99559.91;;;12.44;100.00
2549;BME280;1284;53.520;10.248;2023-11-19T07:27:05;99561.84;;;12.43;100.00
2549;BME280;1284;53.520;10.248;2023-11-19T07:29:32;99561.44;;;12.48;100.00
2549;BME280;1284;53.520;10.248;2023-11-19T07:31:57;99564.88;;;12.56;100.00
2549;BME280;1284;53.520;10.248;2023-11-19T07:34:23;99564.09;;;12.55;100.00
2549;BME280;1284;53.520;10.248;2023-11-19T07:36:48;99569.81;;;12.64;100.00
2549;BME280;1284;53.520;10.248;2023-11-19T07:39:14;99574.03;;;12.69;100.00
2549;BME280;1284;53.520;10.248;2023-11-19T07:41:39;99574.81;;;12.69;100.00
2549;BME280;1284;53.520;10.248;2023-11-19T07:44:05;99577.91;;;12.64;100.00
2549;BME280;1284;53.520;10.248;2023-11-19T07:46:31;99567.09;;;12.68;100.00
2549;BME280;1284;53.520;10.248;2023-11-19T07:48:57;99577.44;;;12.80;100.00
2549;BME280;1284;53.520;10.248;2023-11-19T07:51:23;99582.81;;;12.84;100.00
2549;BME280;1284;53.520;10.248;2023-11-19T07:53:52;99563.88;;;12.91;100.00
2549;BME280;1284;53.520;10.248;2023-11-19T07:56:17;99576.59;;;12.90;100.00
2549;BME280;1284;53.520;10.248;2023-11-19T07:58:43;99578.50;;;12.97;100.00
2549;BME280;1284;53.520;10.248;2023-11-19T08:01:10;99585.44;;;12.98;100.00
2549;BME280;1284;53.520;10.248;2023-11-19T08:03:36;99578.47;;;13.04;100.00
2549;BME280;1284;53.520;10.248;2023-11-19T08:06:03;99576.88;;;13.10;100.00
2549;BME280;1284;53.520;10.248;2023-11-19T08:08:28;99587.59;;;13.20;100.00
2549;BME280;1284;53.520;10.248;2023-11-19T08:11:01;99586.16;;;13.12;100.00
2549;BME280;1284;53.520;10.248;2023-11-19T08:13:26;99590.00;;;13.11;100.00
2549;BME280;1284;53.520;10.248;2023-11-19T08:15:52;99585.78;;;13.07;100.00
2549;BME280;1284;53.520;10.248;2023-11-19T08:18:18;99590.75;;;13.15;100.00
2549;BME280;1284;53.520;10.248;2023-11-19T08:20:44;99590.75;;;13.15;100.00
2549;BME280;1284;53.520;10.248;2023-11-19T08:23:10;99586.00;;;13.26;100.00
2549;BME280;1284;53.520;10.248;2023-11-19T08:25:35;99600.41;;;13.13;100.00
2549;BME280;1284;53.520;10.248;2023-11-19T08:28:01;99605.72;;;13.27;100.00
2549;BME280;1284;53.520;10.248;2023-11-19T08:30:29;99598.75;;;13.29;100.00
2549;BME280;1284;53.520;10.248;2023-11-19T08:32:54;99610.69;;;13.32;100.00
2549;BME280;1284;53.520;10.248;2023-11-19T08:35:19;99607.63;;;13.30;100.00
2549;BME280;1284;53.520;10.248;2023-11-19T08:37:45;99620.81;;;13.21;100.00
2549;BME280;1284;53.520;10.248;2023-11-19T08:40:11;99619.31;;;13.20;100.00
2549;BME280;1284;53.520;10.248;2023-11-19T08:42:38;99617.69;;;13.26;100.00
2549;BME280;1284;53.520;10.248;2023-11-19T08:45:05;99612.19;;;13.40;100.00
2549;BME280;1284;53.520;10.248;2023-11-19T08:47:30;99612.56;;;13.38;100.00
2549;BME280;1284;53.520;10.248;2023-11-19T08:49:55;99612.66;;;13.31;100.00
2549;BME280;1284;53.520;10.248;2023-11-19T08:52:21;99622.53;;;13.48;100.00
2549;BME280;1284;53.520;10.248;2023-11-19T08:54:47;99623.31;;;13.49;100.00
2549;BME280;1284;53.520;10.248;2023-11-19T08:57:12;99618.28;;;13.47;100.00
2549;BME280;1284;53.520;10.248;2023-11-19T08:59:38;99620.28;;;13.40;100.00
2549;BME280;1284;53.520;10.248;2023-11-19T09:02:05;99624.53;;;13.41;100.00
2549;BME280;1284;53.520;10.248;2023-11-19T09:04:30;99626.88;;;13.39;100.00
2549;BME280;1284;53.520;10.248;2023-11-19T09:06:57;99631.41;;;13.52;100.00
2549;BME280;1284;53.520;10.248;2023-11-19T09:09:23;99637.06;;;13.65;100.00
2549;BME280;1284;53.520;10.248;2023-11-19T09:11:48;99637.53;;;13.60;100.00
2549;BME280;1284;53.520;10.248;2023-11-19T09:14:14;99624.06;;;13.49;100.00
2549;BME280;1284;53.520;10.248;2023-11-19T09:16:39;99637.97;;;13.51;100.00
2549;BME280;1284;53.520;10.248;2023-11-19T09:19:07;99634.50;;;13.51;100.00
2549;BME280;1284;53.520;10.248;2023-11-19T09:21:33;99636.47;;;13.43;100.00
2549;BME280;1284;53.520;10.248;2023-11-19T09:24:01;99643.78;;;13.50;100.00
2549;BME280;1284;53.520;10.248;2023-11-19T09:26:27;99636.78;;;13.56;100.00
2549;BME280;1284;53.520;10.248;2023-11-19T09:28:54;99643.38;;;13.51;100.00
2549;BME280;1284;53.520;10.248;2023-11-19T09:31:19;99640.25;;;13.56;100.00
2549;BME280;1284;53.520;10.248;2023-11-19T09:33:45;99648.31;;;13.64;100.00
2549;BME280;1284;53.520;10.248;2023-11-19T09:36:14;99643.09;;;13.39;100.00
2549;BME280;1284;53.520;10.248;2023-11-19T09:38:40;99649.97;;;13.50;100.00
2549;BME280;1284;53.520;10.248;2023-11-19T09:41:06;99645.91;;;13.73;100.00
2549;BME280;1284;53.520;10.248;2023-11-19T09:43:35;99647.34;;;13.84;100.00
2549;BME280;1284;53.520;10.248;2023-11-19T09:46:09;99647.75;;;13.83;100.00
2549;BME280;1284;53.520;10.248;2023-11-19T09:48:39;99641.91;;;13.88;100.00
2549;BME280;1284;53.520;10.248;2023-11-19T09:51:08;99646.50;;;13.91;100.00
2549;BME280;1284;53.520;10.248;2023-11-19T09:53:35;99647.56;;;14.00;100.00
2549;BME280;1284;53.520;10.248;2023-11-19T09:56:05;99647.13;;;14.05;100.00
2549;BME280;1284;53.520;10.248;2023-11-19T09:58:32;99653.28;;;14.09;100.00
2549;BME280;1284;53.520;10.248;2023-11-19T10:00:58;99653.63;;;14.15;100.00
2549;BME280;1284;53.520;10.248;2023-11-19T10:03:25;99647.81;;;14.16;100.00
2549;BME280;1284;53.520;10.248;2023-11-19T10:05:53;99648.84;;;14.29;100.00
2549;BME280;1284;53.520;10.248;2023-11-19T10:08:20;99640.84;;;14.15;100.00
2549;BME280;1284;53.520;10.248;2023-11-19T10:10:47;99636.34;;;14.02;100.00
2549;BME280;1284;53.520;10.248;2023-11-19T10:13:12;99634.72;;;14.08;100.00
2549;BME280;1284;53.520;10.248;2023-11-19T10:15:40;99631.75;;;13.99;100.00
2549;BME280;1284;53.520;10.248;2023-11-19T10:18:08;99639.09;;;13.98;100.00
2549;BME280;1284;53.520;10.248;2023-11-19T10:20:37;99633.34;;;13.93;100.00
2549;BME280;1284;53.520;10.248;2023-11-19T10:23:05;99632.63;;;13.89;100.00
2549;BME280;1284;53.520;10.248;2023-11-19T10:25:32;99640.31;;;13.90;100.00
2549;BME280;1284;53.520;10.248;2023-11-19T10:27:58;99644.25;;;13.82;100.00
2549;BME280;1284;53.520;10.248;2023-11-19T10:30:29;99644.75;;;13.74;100.00
2549;BME280;1284;53.520;10.248;2023-11-19T10:33:11;99637.38;;;13.78;100.00
2549;BME280;1284;53.520;10.248;2023-11-19T10:35:55;99638.47;;;13.84;100.00
2549;BME280;1284;53.520;10.248;2023-11-19T10:38:25;99645.31;;;13.95;100.00
2549;BME280;1284;53.520;10.248;2023-11-19T10:40:52;99643.03;;;13.90;100.00
2549;BME280;1284;53.520;10.248;2023-11-19T10:43:21;99636.28;;;14.05;100.00
2549;BME280;1284;53.520;10.248;2023-11-19T10:45:48;99644.06;;;14.03;100.00
2549;BME280;1284;53.520;10.248;2023-11-19T10:48:14;99652.22;;;14.00;100.00
2549;BME280;1284;53.520;10.248;2023-11-19T10:50:41;99657.22;;;14.05;100.00
2549;BME280;1284;53.520;10.248;2023-11-19T10:53:08;99654.53;;;14.01;100.00
2549;BME280;1284;53.520;10.248;2023-11-19T10:55:36;99658.03;;;13.98;100.00
2549;BME280;1284;53.520;10.248;2023-11-19T10:58:15;99653.09;;;13.90;100.00
2549;BME280;1284;53.520;10.248;2023-11-19T11:00:48;99651.88;;;13.94;100.00
2549;BME280;1284;53.520;10.248;2023-11-19T11:03:19;99653.34;;;14.02;100.00
2549;BME280;1284;53.520;10.248;2023-11-19T11:05:47;99652.41;;;14.19;100.00
2549;BME280;1284;53.520;10.248;2023-11-19T11:08:13;99659.88;;;14.08;100.00
2549;BME280;1284;53.520;10.248;2023-11-19T11:10:53;99656.84;;;14.03;100.00
2549;BME280;1284;53.520;10.248;2023-11-19T11:13:19;99662.09;;;14.17;100.00
2549;BME280;1284;53.520;10.248;2023-11-19T11:15:48;99657.03;;;14.22;100.00
2549;BME280;1284;53.520;10.248;2023-11-19T11:18:14;99654.50;;;14.05;100.00
2549;BME280;1284;53.520;10.248;2023-11-19T11:20:40;99657.41;;;13.84;100.00
2549;BME280;1284;53.520;10.248;2023-11-19T11:26:06;99664.88;;;14.10;100.00
2549;BME280;1284;53.520;10.248;2023-11-19T11:31:48;99661.53;;;13.99;100.00
2549;BME280;1284;53.520;10.248;2023-11-19T11:37:32;99664.25;;;13.95;100.00
2549;BME280;1284;53.520;10.248;2023-11-19T11:39:59;99678.94;;;13.94;100.00
2549;BME280;1284;53.520;10.248;2023-11-19T11:45:07;99665.53;;;13.80;100.00
2549;BME280;1284;53.520;10.248;2023-11-19T11:50:09;99677.19;;;13.77;100.00
2549;BME280;1284;53.520;10.248;2023-11-19T11:55:37;99667.03;;;13.88;100.00
2549;BME280;1284;53.520;10.248;2023-11-19T11:58:27;99663.91;;;13.93;100.00
2549;BME280;1284;53.520;10.248;2023-11-19T12:00:58;99659.59;;;13.99;100.00
2549;BME280;1284;53.520;10.248;2023-11-19T12:03:27;99665.97;;;14.16;100.00
2549;BME280;1284;53.520;10.248;2023-11-19T12:05:52;99657.75;;;14.30;100.00
2549;BME280;1284;53.520;10.248;2023-11-19T12:08:22;99668.66;;;14.19;100.00
2549;BME280;1284;53.520;10.248;2023-11-19T12:10:50;99666.25;;;14.25;100.00
2549;BME280;1284;53.520;10.248;2023-11-19T12:13:18;99660.53;;;14.57;100.00
2549;BME280;1284;53.520;10.248;2023-11-19T12:18:31;99653.75;;;14.72;100.00
2549;BME280;1284;53.520;10.248;2023-11-19T12:20:58;99649.63;;;14.60;100.00
2549;BME280;1284;53.520;10.248;2023-11-19T12:23:27;99651.94;;;14.62;100.00
2549;BME280;1284;53.520;10.248;2023-11-19T12:25:54;99650.47;;;14.57;100.00
2549;BME280;1284;53.520;10.248;2023-11-19T12:28:20;99658.84;;;14.66;100.00
2549;BME280;1284;53.520;10.248;2023-11-19T12:30:46;99651.13;;;14.65;100.00
2549;BME280;1284;53.520;10.248;2023-11-19T12:33:15;99665.13;;;14.60;99.63
2549;BME280;1284;53.520;10.248;2023-11-19T12:35:43;99662.59;;;14.45;100.00
2549;BME280;1284;53.520;10.248;2023-11-19T12:38:22;99657.13;;;14.49;100.00
2549;BME280;1284;53.520;10.248;2023-11-19T12:41:02;99661.91;;;14.38;100.00
2549;BME280;1284;53.520;10.248;2023-11-19T12:43:28;99660.78;;;14.35;100.00
2549;BME280;1284;53.520;10.248;2023-11-19T12:45:54;99661.13;;;14.37;100.00
2549;BME280;1284;53.520;10.248;2023-11-19T12:48:20;99664.47;;;14.11;100.00
2549;BME280;1284;53.520;10.248;2023-11-19T12:50:58;99663.56;;;14.28;100.00
2549;BME280;1284;53.520;10.248;2023-11-19T12:53:25;99660.41;;;14.33;100.00
2549;BME280;1284;53.520;10.248;2023-11-19T12:55:51;99663.97;;;14.23;100.00
2549;BME280;1284;53.520;10.248;2023-11-19T12:58:30;99662.88;;;14.17;100.00
2549;BME280;1284;53.520;10.248;2023-11-19T13:01:00;99655.69;;;14.00;100.00
2549;BME280;1284;53.520;10.248;2023-11-19T13:03:33;99652.03;;;14.17;100.00
2549;BME280;1284;53.520;10.248;2023-11-19T13:08:36;99648.47;;;14.27;100.00
2549;BME280;1284;53.520;10.248;2023-11-19T13:11:03;99649.25;;;14.28;100.00
2549;BME280;1284;53.520;10.248;2023-11-19T13:13:28;99650.53;;;14.50;100.00
2549;BME280;1284;53.520;10.248;2023-11-19T13:16:06;99650.53;;;14.50;100.00
2549;BME280;1284;53.520;10.248;2023-11-19T13:18:32;99645.44;;;14.56;100.00
2549;BME280;1284;53.520;10.248;2023-11-19T13:21:00;99639.53;;;14.64;100.00
2549;BME280;1284;53.520;10.248;2023-11-19T13:23:26;99639.09;;;14.35;100.00
2549;BME280;1284;53.520;10.248;2023-11-19T13:25:51;99644.84;;;14.41;100.00
2549;BME280;1284;53.520;10.248;2023-11-19T13:28:17;99648.22;;;14.15;100.00